sensor_id;sensor_type;location;lat;lon;timestamp;P1;durP1;ratioP1;P2;durP2;ratioP2
67503;SDS011;54351;49.108;1.502;2022-09-01T00:00:59;517.58;;;484.23;;
67503;SDS011;54351;49.108;1.502;2022-09-01T00:03:27;523.03;;;489.63;;
67503;SDS011;54351;49.108;1.502;2022-09-01T00:05:53;508.27;;;474.98;;
67503;SDS011;54351;49.108;1.502;2022-09-01T00:08:21;573.65;;;535.10;;
67503;SDS011;54351;49.108;1.502;2022-09-01T00:10:48;544.00;;;507.00;;
67503;SDS011;54351;49.108;1.502;2022-09-01T00:13:14;567.85;;;529.60;;
67503;SDS011;54351;49.108;1.502;2022-09-01T00:15:40;582.97;;;544.55;;
67503;SDS011;54351;49.108;1.502;2022-09-01T00:18:07;597.25;;;557.05;;
67503;SDS011;54351;49.108;1.502;2022-09-01T00:20:33;604.13;;;563.78;;
67503;SDS011;54351;49.108;1.502;2022-09-01T00:22:59;540.28;;;504.55;;
67503;SDS011;54351;49.108;1.502;2022-09-01T00:25:26;555.65;;;517.10;;
67503;SDS011;54351;49.108;1.502;2022-09-01T00:27:52;562.83;;;523.15;;
67503;SDS011;54351;49.108;1.502;2022-09-01T00:30:19;572.85;;;532.00;;
67503;SDS011;54351;49.108;1.502;2022-09-01T00:32:45;585.88;;;543.30;;
67503;SDS011;54351;49.108;1.502;2022-09-01T00:35:13;520.67;;;481.70;;
67503;SDS011;54351;49.108;1.502;2022-09-01T00:37:39;595.15;;;551.10;;
67503;SDS011;54351;49.108;1.502;2022-09-01T00:40:06;471.73;;;437.88;;
67503;SDS011;54351;49.108;1.502;2022-09-01T00:42:32;523.95;;;483.02;;
67503;SDS011;54351;49.108;1.502;2022-09-01T00:44:58;563.03;;;519.15;;
67503;SDS011;54351;49.108;1.502;2022-09-01T00:47:24;554.28;;;511.75;;
67503;SDS011;54351;49.108;1.502;2022-09-01T00:49:50;458.27;;;422.90;;
67503;SDS011;54351;49.108;1.502;2022-09-01T00:52:21;464.92;;;428.95;;
67503;SDS011;54351;49.108;1.502;2022-09-01T00:54:53;584.63;;;537.70;;
67503;SDS011;54351;49.108;1.502;2022-09-01T00:57:22;401.70;;;369.58;;
67503;SDS011;54351;49.108;1.502;2022-09-01T00:59:58;393.98;;;363.25;;
67503;SDS011;54351;49.108;1.502;2022-09-01T01:02:25;276.75;;;254.95;;
67503;SDS011;54351;49.108;1.502;2022-09-01T01:04:51;292.48;;;269.45;;
67503;SDS011;54351;49.108;1.502;2022-09-01T01:07:20;342.10;;;313.80;;
67503;SDS011;54351;49.108;1.502;2022-09-01T01:09:46;396.90;;;363.25;;
67503;SDS011;54351;49.108;1.502;2022-09-01T01:12:13;379.38;;;346.70;;
67503;SDS011;54351;49.108;1.502;2022-09-01T01:14:41;346.60;;;317.08;;
67503;SDS011;54351;49.108;1.502;2022-09-01T01:17:10;417.88;;;379.38;;
67503;SDS011;54351;49.108;1.502;2022-09-01T01:19:39;442.73;;;399.77;;
67503;SDS011;54351;49.108;1.502;2022-09-01T01:25:15;357.52;;;324.45;;
67503;SDS011;54351;49.108;1.502;2022-09-01T01:27:43;455.42;;;408.77;;
67503;SDS011;54351;49.108;1.502;2022-09-01T01:30:10;511.25;;;460.02;;
67503;SDS011;54351;49.108;1.502;2022-09-01T01:32:37;555.00;;;498.83;;
67503;SDS011;54351;49.108;1.502;2022-09-01T01:35:07;459.85;;;414.38;;
67503;SDS011;54351;49.108;1.502;2022-09-01T01:37:39;600.22;;;539.65;;
67503;SDS011;54351;49.108;1.502;2022-09-01T01:40:07;570.63;;;513.20;;
67503;SDS011;54351;49.108;1.502;2022-09-01T01:42:49;658.30;;;586.78;;
67503;SDS011;54351;49.108;1.502;2022-09-01T01:45:16;695.15;;;621.88;;
67503;SDS011;54351;49.108;1.502;2022-09-01T01:47:44;675.85;;;602.92;;
67503;SDS011;54351;49.108;1.502;2022-09-01T01:50:25;551.95;;;494.95;;
67503;SDS011;54351;49.108;1.502;2022-09-01T01:52:54;748.42;;;640.30;;
67503;SDS011;54351;49.108;1.502;2022-09-01T01:55:22;687.40;;;606.50;;
67503;SDS011;54351;49.108;1.502;2022-09-01T01:57:51;683.55;;;601.55;;
67503;SDS011;54351;49.108;1.502;2022-09-01T02:00:19;747.70;;;644.38;;
67503;SDS011;54351;49.108;1.502;2022-09-01T02:02:46;806.17;;;679.42;;
67503;SDS011;54351;49.108;1.502;2022-09-01T02:05:17;698.13;;;611.67;;
67503;SDS011;54351;49.108;1.502;2022-09-01T02:07:47;601.83;;;538.00;;
67503;SDS011;54351;49.108;1.502;2022-09-01T02:10:14;540.28;;;486.33;;
67503;SDS011;54351;49.108;1.502;2022-09-01T02:12:40;581.15;;;521.55;;
67503;SDS011;54351;49.108;1.502;2022-09-01T02:15:07;637.60;;;569.88;;
67503;SDS011;54351;49.108;1.502;2022-09-01T02:17:33;468.63;;;425.30;;
67503;SDS011;54351;49.108;1.502;2022-09-01T02:19:59;508.52;;;459.33;;
67503;SDS011;54351;49.108;1.502;2022-09-01T02:22:25;546.00;;;493.67;;
67503;SDS011;54351;49.108;1.502;2022-09-01T02:24:52;682.00;;;608.33;;
67503;SDS011;54351;49.108;1.502;2022-09-01T02:27:21;486.75;;;440.48;;
67503;SDS011;54351;49.108;1.502;2022-09-01T02:29:50;655.38;;;582.50;;
67503;SDS011;54351;49.108;1.502;2022-09-01T02:32:19;804.33;;;692.72;;
67503;SDS011;54351;49.108;1.502;2022-09-01T02:34:48;755.92;;;673.90;;
67503;SDS011;54351;49.108;1.502;2022-09-01T02:39:44;552.17;;;503.90;;
67503;SDS011;54351;49.108;1.502;2022-09-01T02:42:10;717.63;;;640.30;;
67503;SDS011;54351;49.108;1.502;2022-09-01T02:44:38;660.20;;;595.00;;
67503;SDS011;54351;49.108;1.502;2022-09-01T02:47:07;715.45;;;632.97;;
67503;SDS011;54351;49.108;1.502;2022-09-01T02:49:34;612.03;;;552.65;;
67503;SDS011;54351;49.108;1.502;2022-09-01T02:52:02;641.72;;;574.45;;
67503;SDS011;54351;49.108;1.502;2022-09-01T02:54:30;680.67;;;607.92;;
67503;SDS011;54351;49.108;1.502;2022-09-01T02:56:57;746.55;;;668.20;;
67503;SDS011;54351;49.108;1.502;2022-09-01T02:59:25;878.42;;;761.13;;
67503;SDS011;54351;49.108;1.502;2022-09-01T03:01:52;818.63;;;733.47;;
67503;SDS011;54351;49.108;1.502;2022-09-01T03:04:18;716.67;;;649.97;;
67503;SDS011;54351;49.108;1.502;2022-09-01T03:06:46;647.13;;;589.70;;
67503;SDS011;54351;49.108;1.502;2022-09-01T03:09:15;646.33;;;588.72;;
67503;SDS011;54351;49.108;1.502;2022-09-01T03:11:43;764.05;;;691.33;;
67503;SDS011;54351;49.108;1.502;2022-09-01T03:14:09;805.42;;;731.05;;
67503;SDS011;54351;49.108;1.502;2022-09-01T03:16:36;667.13;;;605.92;;
67503;SDS011;54351;49.108;1.502;2022-09-01T03:19:03;739.55;;;671.50;;
67503;SDS011;54351;49.108;1.502;2022-09-01T03:21:33;731.47;;;659.88;;
67503;SDS011;54351;49.108;1.502;2022-09-01T03:23:59;820.22;;;738.45;;
67503;SDS011;54351;49.108;1.502;2022-09-01T03:26:28;783.92;;;710.78;;
67503;SDS011;54351;49.108;1.502;2022-09-01T03:28:54;696.20;;;625.58;;
67503;SDS011;54351;49.108;1.502;2022-09-01T03:31:24;752.38;;;682.40;;
67503;SDS011;54351;49.108;1.502;2022-09-01T03:33:54;698.17;;;630.75;;
67503;SDS011;54351;49.108;1.502;2022-09-01T03:36:24;681.05;;;622.25;;
67503;SDS011;54351;49.108;1.502;2022-09-01T03:38:50;631.70;;;572.50;;
67503;SDS011;54351;49.108;1.502;2022-09-01T03:41:19;618.17;;;565.15;;
67503;SDS011;54351;49.108;1.502;2022-09-01T03:43:46;573.50;;;523.72;;
67503;SDS011;54351;49.108;1.502;2022-09-01T03:46:13;644.92;;;585.78;;
67503;SDS011;54351;49.108;1.502;2022-09-01T03:48:48;277.95;;;253.10;;
67503;SDS011;54351;49.108;1.502;2022-09-01T03:51:14;236.43;;;216.75;;
67503;SDS011;54351;49.108;1.502;2022-09-01T03:53:41;260.38;;;242.30;;
67503;SDS011;54351;49.108;1.502;2022-09-01T03:56:07;194.57;;;181.23;;
67503;SDS011;54351;49.108;1.502;2022-09-01T03:58:35;257.60;;;241.48;;
67503;SDS011;54351;49.108;1.502;2022-09-01T04:01:01;288.02;;;270.48;;
67503;SDS011;54351;49.108;1.502;2022-09-01T04:03:30;177.75;;;165.40;;
67503;SDS011;54351;49.108;1.502;2022-09-01T04:05:58;259.02;;;241.73;;
67503;SDS011;54351;49.108;1.502;2022-09-01T04:08:25;275.35;;;257.35;;
67503;SDS011;54351;49.108;1.502;2022-09-01T04:10:55;208.55;;;194.00;;
67503;SDS011;54351;49.108;1.502;2022-09-01T04:13:29;354.38;;;327.42;;
67503;SDS011;54351;49.108;1.502;2022-09-01T04:15:56;299.70;;;277.70;;
67503;SDS011;54351;49.108;1.502;2022-09-01T04:18:23;287.75;;;266.50;;
67503;SDS011;54351;49.108;1.502;2022-09-01T04:20:53;253.95;;;235.13;;
67503;SDS011;54351;49.108;1.502;2022-09-01T04:23:25;236.05;;;217.30;;
67503;SDS011;54351;49.108;1.502;2022-09-01T04:25:57;284.27;;;264.63;;
67503;SDS011;54351;49.108;1.502;2022-09-01T04:28:25;241.43;;;224.60;;
67503;SDS011;54351;49.108;1.502;2022-09-01T04:30:52;285.08;;;264.90;;
67503;SDS011;54351;49.108;1.502;2022-09-01T04:33:20;230.35;;;214.50;;
67503;SDS011;54351;49.108;1.502;2022-09-01T04:35:47;266.27;;;247.82;;
67503;SDS011;54351;49.108;1.502;2022-09-01T04:38:14;260.83;;;243.25;;
67503;SDS011;54351;49.108;1.502;2022-09-01T04:40:41;241.32;;;226.20;;
67503;SDS011;54351;49.108;1.502;2022-09-01T04:43:07;233.77;;;218.65;;
67503;SDS011;54351;49.108;1.502;2022-09-01T04:45:34;272.13;;;253.07;;
67503;SDS011;54351;49.108;1.502;2022-09-01T04:48:02;257.52;;;241.32;;
67503;SDS011;54351;49.108;1.502;2022-09-01T04:50:29;238.38;;;224.10;;
67503;SDS011;54351;49.108;1.502;2022-09-01T04:52:59;208.48;;;195.65;;
67503;SDS011;54351;49.108;1.502;2022-09-01T04:55:27;235.18;;;219.30;;
67503;SDS011;54351;49.108;1.502;2022-09-01T04:57:55;294.23;;;273.77;;
67503;SDS011;54351;49.108;1.502;2022-09-01T05:00:25;279.45;;;259.02;;
67503;SDS011;54351;49.108;1.502;2022-09-01T05:03:00;365.63;;;337.67;;
67503;SDS011;54351;49.108;1.502;2022-09-01T05:05:39;329.00;;;304.17;;
67503;SDS011;54351;49.108;1.502;2022-09-01T05:08:08;274.48;;;254.25;;
67503;SDS011;54351;49.108;1.502;2022-09-01T05:10:38;254.40;;;235.73;;
67503;SDS011;54351;49.108;1.502;2022-09-01T05:13:09;267.30;;;247.88;;
67503;SDS011;54351;49.108;1.502;2022-09-01T05:15:39;253.00;;;235.25;;
67503;SDS011;54351;49.108;1.502;2022-09-01T05:18:13;213.00;;;199.13;;
67503;SDS011;54351;49.108;1.502;2022-09-01T05:20:39;211.90;;;197.02;;
67503;SDS011;54351;49.108;1.502;2022-09-01T05:23:09;197.63;;;184.80;;
67503;SDS011;54351;49.108;1.502;2022-09-01T05:25:40;230.48;;;215.70;;
67503;SDS011;54351;49.108;1.502;2022-09-01T05:28:08;252.75;;;235.95;;
67503;SDS011;54351;49.108;1.502;2022-09-01T05:30:36;278.58;;;259.90;;
67503;SDS011;54351;49.108;1.502;2022-09-01T05:33:06;246.13;;;230.13;;
67503;SDS011;54351;49.108;1.502;2022-09-01T05:35:36;196.63;;;184.73;;
67503;SDS011;54351;49.108;1.502;2022-09-01T05:38:02;265.25;;;248.50;;
67503;SDS011;54351;49.108;1.502;2022-09-01T05:40:28;188.95;;;177.80;;
67503;SDS011;54351;49.108;1.502;2022-09-01T05:42:56;223.90;;;208.75;;
67503;SDS011;54351;49.108;1.502;2022-09-01T05:45:23;229.50;;;213.75;;
67503;SDS011;54351;49.108;1.502;2022-09-01T05:47:50;216.07;;;201.23;;
67503;SDS011;54351;49.108;1.502;2022-09-01T05:50:18;220.18;;;206.10;;
67503;SDS011;54351;49.108;1.502;2022-09-01T05:52:45;181.38;;;169.95;;
67503;SDS011;54351;49.108;1.502;2022-09-01T05:55:11;184.35;;;172.95;;
67503;SDS011;54351;49.108;1.502;2022-09-01T05:57:39;194.02;;;181.60;;
67503;SDS011;54351;49.108;1.502;2022-09-01T06:00:07;229.80;;;215.18;;
67503;SDS011;54351;49.108;1.502;2022-09-01T06:02:37;173.40;;;162.63;;
67503;SDS011;54351;49.108;1.502;2022-09-01T06:05:04;230.98;;;215.88;;
67503;SDS011;54351;49.108;1.502;2022-09-01T06:07:30;252.15;;;235.45;;
67503;SDS011;54351;49.108;1.502;2022-09-01T06:09:56;282.05;;;263.42;;
67503;SDS011;54351;49.108;1.502;2022-09-01T06:12:24;192.07;;;180.00;;
67503;SDS011;54351;49.108;1.502;2022-09-01T06:14:52;193.55;;;181.68;;
67503;SDS011;54351;49.108;1.502;2022-09-01T06:17:19;211.43;;;198.57;;
67503;SDS011;54351;49.108;1.502;2022-09-01T06:19:48;256.65;;;240.52;;
67503;SDS011;54351;49.108;1.502;2022-09-01T06:22:16;256.90;;;240.32;;
67503;SDS011;54351;49.108;1.502;2022-09-01T06:24:42;183.75;;;172.35;;
67503;SDS011;54351;49.108;1.502;2022-09-01T06:27:08;235.32;;;220.98;;
67503;SDS011;54351;49.108;1.502;2022-09-01T06:29:35;276.15;;;258.45;;
67503;SDS011;54351;49.108;1.502;2022-09-01T06:32:04;240.18;;;225.98;;
67503;SDS011;54351;49.108;1.502;2022-09-01T06:34:34;235.77;;;220.23;;
67503;SDS011;54351;49.108;1.502;2022-09-01T06:37:01;223.43;;;209.30;;
67503;SDS011;54351;49.108;1.502;2022-09-01T06:39:27;212.20;;;198.93;;
67503;SDS011;54351;49.108;1.502;2022-09-01T06:41:53;241.00;;;226.23;;
67503;SDS011;54351;49.108;1.502;2022-09-01T06:44:21;243.48;;;227.93;;
67503;SDS011;54351;49.108;1.502;2022-09-01T06:46:48;224.63;;;210.10;;
67503;SDS011;54351;49.108;1.502;2022-09-01T06:49:14;263.70;;;247.15;;
67503;SDS011;54351;49.108;1.502;2022-09-01T06:51:40;266.23;;;249.10;;
67503;SDS011;54351;49.108;1.502;2022-09-01T06:54:06;249.07;;;233.32;;
67503;SDS011;54351;49.108;1.502;2022-09-01T06:56:33;226.65;;;212.75;;
67503;SDS011;54351;49.108;1.502;2022-09-01T06:59:00;260.52;;;243.75;;
67503;SDS011;54351;49.108;1.502;2022-09-01T07:01:28;297.70;;;277.35;;
67503;SDS011;54351;49.108;1.502;2022-09-01T07:03:54;296.63;;;278.25;;
67503;SDS011;54351;49.108;1.502;2022-09-01T07:06:21;255.98;;;240.15;;
67503;SDS011;54351;49.108;1.502;2022-09-01T07:08:57;296.38;;;277.95;;
67503;SDS011;54351;49.108;1.502;2022-09-01T07:11:25;445.15;;;413.58;;
67503;SDS011;54351;49.108;1.502;2022-09-01T07:13:54;456.55;;;423.98;;
67503;SDS011;54351;49.108;1.502;2022-09-01T07:16:21;450.58;;;418.02;;
67503;SDS011;54351;49.108;1.502;2022-09-01T07:18:51;511.17;;;473.60;;
67503;SDS011;54351;49.108;1.502;2022-09-01T07:21:20;465.27;;;431.52;;
67503;SDS011;54351;49.108;1.502;2022-09-01T07:23:46;504.70;;;467.67;;
67503;SDS011;54351;49.108;1.502;2022-09-01T07:26:12;460.20;;;426.30;;
67503;SDS011;54351;49.108;1.502;2022-09-01T07:28:42;455.45;;;421.27;;
67503;SDS011;54351;49.108;1.502;2022-09-01T07:31:15;493.23;;;456.13;;
67503;SDS011;54351;49.108;1.502;2022-09-01T07:33:41;502.15;;;464.60;;
67503;SDS011;54351;49.108;1.502;2022-09-01T07:36:11;500.38;;;463.88;;
67503;SDS011;54351;49.108;1.502;2022-09-01T07:38:37;508.67;;;471.25;;
67503;SDS011;54351;49.108;1.502;2022-09-01T07:41:04;499.85;;;463.20;;
67503;SDS011;54351;49.108;1.502;2022-09-01T07:43:30;503.95;;;466.65;;
67503;SDS011;54351;49.108;1.502;2022-09-01T07:45:58;495.88;;;457.73;;
67503;SDS011;54351;49.108;1.502;2022-09-01T07:48:25;475.50;;;437.95;;
67503;SDS011;54351;49.108;1.502;2022-09-01T07:50:52;564.60;;;516.75;;
67503;SDS011;54351;49.108;1.502;2022-09-01T07:53:21;627.83;;;570.97;;
67503;SDS011;54351;49.108;1.502;2022-09-01T07:55:48;654.08;;;593.88;;
67503;SDS011;54351;49.108;1.502;2022-09-01T07:58:15;756.22;;;681.35;;
67503;SDS011;54351;49.108;1.502;2022-09-01T08:00:42;799.15;;;717.58;;
67503;SDS011;54351;49.108;1.502;2022-09-01T08:03:08;813.40;;;726.80;;
67503;SDS011;54351;49.108;1.502;2022-09-01T08:05:34;817.67;;;730.67;;
67503;SDS011;54351;49.108;1.502;2022-09-01T08:08:00;866.63;;;771.40;;
67503;SDS011;54351;49.108;1.502;2022-09-01T08:10:26;858.15;;;755.95;;
67503;SDS011;54351;49.108;1.502;2022-09-01T08:12:53;987.47;;;773.70;;
67503;SDS011;54351;49.108;1.502;2022-09-01T08:15:19;973.13;;;757.63;;
67503;SDS011;54351;49.108;1.502;2022-09-01T08:17:45;983.58;;;759.10;;
67503;SDS011;54351;49.108;1.502;2022-09-01T08:20:11;1065.05;;;795.88;;
67503;SDS011;54351;49.108;1.502;2022-09-01T08:22:37;1212.93;;;854.67;;
67503;SDS011;54351;49.108;1.502;2022-09-01T08:25:05;1204.63;;;839.13;;
67503;SDS011;54351;49.108;1.502;2022-09-01T08:27:32;1241.38;;;863.33;;
67503;SDS011;54351;49.108;1.502;2022-09-01T08:30:00;1350.38;;;895.28;;
67503;SDS011;54351;49.108;1.502;2022-09-01T08:32:26;1355.32;;;894.60;;
67503;SDS011;54351;49.108;1.502;2022-09-01T08:34:52;1222.28;;;822.42;;
67503;SDS011;54351;49.108;1.502;2022-09-01T08:37:18;966.33;;;679.20;;
67503;SDS011;54351;49.108;1.502;2022-09-01T08:39:45;912.58;;;660.22;;
67503;SDS011;54351;49.108;1.502;2022-09-01T08:45:07;882.95;;;680.92;;
67503;SDS011;54351;49.108;1.502;2022-09-01T08:47:36;768.08;;;583.55;;
67503;SDS011;54351;49.108;1.502;2022-09-01T08:50:03;797.25;;;649.85;;
67503;SDS011;54351;49.108;1.502;2022-09-01T08:52:37;890.95;;;717.80;;
67503;SDS011;54351;49.108;1.502;2022-09-01T08:55:11;825.55;;;689.05;;
67503;SDS011;54351;49.108;1.502;2022-09-01T08:57:43;649.15;;;577.83;;
67503;SDS011;54351;49.108;1.502;2022-09-01T09:00:11;587.42;;;529.15;;
67503;SDS011;54351;49.108;1.502;2022-09-01T09:10:39;672.85;;;613.25;;
67503;SDS011;54351;49.108;1.502;2022-09-01T09:13:14;607.00;;;556.80;;
67503;SDS011;54351;49.108;1.502;2022-09-01T09:15:42;643.53;;;588.05;;
67503;SDS011;54351;49.108;1.502;2022-09-01T09:23:39;592.55;;;546.97;;
67503;SDS011;54351;49.108;1.502;2022-09-01T09:26:02;691.22;;;633.53;;
67503;SDS011;54351;49.108;1.502;2022-09-01T09:28:29;725.65;;;667.65;;
67503;SDS011;54351;49.108;1.502;2022-09-01T09:33:39;726.83;;;670.30;;
67503;SDS011;54351;49.108;1.502;2022-09-01T09:36:19;753.58;;;693.90;;
67503;SDS011;54351;49.108;1.502;2022-09-01T09:38:45;724.25;;;666.08;;
67503;SDS011;54351;49.108;1.502;2022-09-01T09:41:16;688.05;;;633.17;;
67503;SDS011;54351;49.108;1.502;2022-09-01T09:56:37;778.00;;;717.53;;
67503;SDS011;54351;49.108;1.502;2022-09-01T09:59:27;787.25;;;725.38;;
67503;SDS011;54351;49.108;1.502;2022-09-01T10:01:54;786.15;;;724.30;;
67503;SDS011;54351;49.108;1.502;2022-09-01T10:04:31;812.10;;;746.60;;
67503;SDS011;54351;49.108;1.502;2022-09-01T10:06:57;807.85;;;741.08;;
67503;SDS011;54351;49.108;1.502;2022-09-01T10:11:51;743.92;;;683.15;;
67503;SDS011;54351;49.108;1.502;2022-09-01T10:14:20;831.08;;;761.88;;
67503;SDS011;54351;49.108;1.502;2022-09-01T10:16:49;819.03;;;748.80;;
67503;SDS011;54351;49.108;1.502;2022-09-01T10:19:17;793.47;;;723.67;;
67503;SDS011;54351;49.108;1.502;2022-09-01T10:21:44;754.38;;;687.03;;
67503;SDS011;54351;49.108;1.502;2022-09-01T10:24:16;757.58;;;689.63;;
67503;SDS011;54351;49.108;1.502;2022-09-01T10:26:44;741.22;;;674.97;;
67503;SDS011;54351;49.108;1.502;2022-09-01T10:29:17;752.45;;;686.28;;
67503;SDS011;54351;49.108;1.502;2022-09-01T10:31:45;763.10;;;695.33;;
67503;SDS011;54351;49.108;1.502;2022-09-01T10:34:12;744.80;;;680.15;;
67503;SDS011;54351;49.108;1.502;2022-09-01T10:36:40;692.83;;;633.60;;
67503;SDS011;54351;49.108;1.502;2022-09-01T10:39:14;634.08;;;579.30;;
67503;SDS011;54351;49.108;1.502;2022-09-01T10:41:45;668.58;;;610.80;;
67503;SDS011;54351;49.108;1.502;2022-09-01T10:46:44;653.65;;;596.38;;
67503;SDS011;54351;49.108;1.502;2022-09-01T10:49:21;695.65;;;634.92;;
67503;SDS011;54351;49.108;1.502;2022-09-01T10:51:47;690.55;;;630.05;;
67503;SDS011;54351;49.108;1.502;2022-09-01T10:56:59;690.35;;;630.25;;
67503;SDS011;54351;49.108;1.502;2022-09-01T10:59:27;703.30;;;643.05;;
67503;SDS011;54351;49.108;1.502;2022-09-01T11:14:34;626.60;;;574.00;;
67503;SDS011;54351;49.108;1.502;2022-09-01T11:17:19;543.90;;;499.35;;
67503;SDS011;54351;49.108;1.502;2022-09-01T11:27:09;534.77;;;490.37;;
67503;SDS011;54351;49.108;1.502;2022-09-01T11:29:52;510.95;;;468.80;;
67503;SDS011;54351;49.108;1.502;2022-09-01T11:32:19;506.63;;;463.85;;
67503;SDS011;54351;49.108;1.502;2022-09-01T11:34:47;516.90;;;474.38;;
67503;SDS011;54351;49.108;1.502;2022-09-01T11:37:15;482.80;;;442.77;;
67503;SDS011;54351;49.108;1.502;2022-09-01T11:39:45;540.40;;;495.85;;
67503;SDS011;54351;49.108;1.502;2022-09-01T11:44:49;494.23;;;453.10;;
67503;SDS011;54351;49.108;1.502;2022-09-01T11:47:21;452.77;;;412.45;;
67503;SDS011;54351;49.108;1.502;2022-09-01T11:50:54;439.35;;;401.02;;
67503;SDS011;54351;49.108;1.502;2022-09-01T11:52:58;447.92;;;408.95;;
67503;SDS011;54351;49.108;1.502;2022-09-01T11:55:29;459.42;;;419.83;;
67503;SDS011;54351;49.108;1.502;2022-09-01T11:57:55;449.77;;;411.30;;
67503;SDS011;54351;49.108;1.502;2022-09-01T12:00:29;462.02;;;421.63;;
67503;SDS011;54351;49.108;1.502;2022-09-01T12:02:56;462.50;;;421.30;;
67503;SDS011;54351;49.108;1.502;2022-09-01T12:05:29;429.50;;;393.13;;
67503;SDS011;54351;49.108;1.502;2022-09-01T12:07:55;468.73;;;427.48;;
67503;SDS011;54351;49.108;1.502;2022-09-01T12:15:30;483.80;;;441.17;;
67503;SDS011;54351;49.108;1.502;2022-09-01T12:20:43;496.65;;;454.17;;
67503;SDS011;54351;49.108;1.502;2022-09-01T12:23:22;498.35;;;455.52;;
67503;SDS011;54351;49.108;1.502;2022-09-01T12:25:50;530.05;;;485.00;;
67503;SDS011;54351;49.108;1.502;2022-09-01T12:28:16;497.77;;;455.33;;
67503;SDS011;54351;49.108;1.502;2022-09-01T12:30:42;563.85;;;515.72;;
67503;SDS011;54351;49.108;1.502;2022-09-01T12:33:10;562.45;;;512.10;;
67503;SDS011;54351;49.108;1.502;2022-09-01T12:35:38;537.60;;;490.70;;
67503;SDS011;54351;49.108;1.502;2022-09-01T12:40:46;569.33;;;518.70;;
67503;SDS011;54351;49.108;1.502;2022-09-01T12:43:32;530.00;;;481.88;;
67503;SDS011;54351;49.108;1.502;2022-09-01T12:45:58;508.48;;;461.42;;
67503;SDS011;54351;49.108;1.502;2022-09-01T12:48:39;511.42;;;465.77;;
67503;SDS011;54351;49.108;1.502;2022-09-01T12:51:17;503.40;;;458.38;;
67503;SDS011;54351;49.108;1.502;2022-09-01T12:53:54;515.42;;;469.67;;
67503;SDS011;54351;49.108;1.502;2022-09-01T12:59:02;663.63;;;608.35;;
67503;SDS011;54351;49.108;1.502;2022-09-01T13:01:30;745.35;;;681.75;;
67503;SDS011;54351;49.108;1.502;2022-09-01T13:06:35;790.72;;;723.75;;
67503;SDS011;54351;49.108;1.502;2022-09-01T13:09:01;765.28;;;699.40;;
67503;SDS011;54351;49.108;1.502;2022-09-01T13:11:27;879.33;;;797.05;;
67503;SDS011;54351;49.108;1.502;2022-09-01T13:13:53;775.35;;;708.00;;
67503;SDS011;54351;49.108;1.502;2022-09-01T13:16:19;910.03;;;822.35;;
67503;SDS011;54351;49.108;1.502;2022-09-01T13:18:46;959.28;;;867.20;;
67503;SDS011;54351;49.108;1.502;2022-09-01T13:21:12;944.80;;;849.13;;
67503;SDS011;54351;49.108;1.502;2022-09-01T13:23:38;977.60;;;879.92;;
67503;SDS011;54351;49.108;1.502;2022-09-01T13:26:04;987.83;;;887.75;;
67503;SDS011;54351;49.108;1.502;2022-09-01T13:28:30;1062.88;;;953.42;;
67503;SDS011;54351;49.108;1.502;2022-09-01T13:31:01;1044.90;;;935.42;;
67503;SDS011;54351;49.108;1.502;2022-09-01T13:33:31;1038.40;;;931.45;;
67503;SDS011;54351;49.108;1.502;2022-09-01T13:35:57;1103.68;;;986.50;;
67503;SDS011;54351;49.108;1.502;2022-09-01T13:38:23;1117.40;;;998.42;;
67503;SDS011;54351;49.108;1.502;2022-09-01T13:40:50;1094.30;;;979.58;;
67503;SDS011;54351;49.108;1.502;2022-09-01T13:43:20;1068.65;;;958.08;;
67503;SDS011;54351;49.108;1.502;2022-09-01T13:45:47;1053.03;;;942.90;;
67503;SDS011;54351;49.108;1.502;2022-09-01T13:48:14;1043.47;;;935.17;;
67503;SDS011;54351;49.108;1.502;2022-09-01T13:50:40;1056.38;;;945.83;;
67503;SDS011;54351;49.108;1.502;2022-09-01T13:53:07;1131.57;;;999.90;;
67503;SDS011;54351;49.108;1.502;2022-09-01T13:55:34;1054.47;;;944.05;;
67503;SDS011;54351;49.108;1.502;2022-09-01T13:58:00;1044.18;;;935.40;;
67503;SDS011;54351;49.108;1.502;2022-09-01T14:00:27;1057.18;;;946.60;;
67503;SDS011;54351;49.108;1.502;2022-09-01T14:02:56;1039.28;;;930.65;;
67503;SDS011;54351;49.108;1.502;2022-09-01T14:05:28;1068.75;;;955.78;;
67503;SDS011;54351;49.108;1.502;2022-09-01T14:10:20;1019.95;;;912.00;;
67503;SDS011;54351;49.108;1.502;2022-09-01T14:12:48;1072.43;;;959.95;;
67503;SDS011;54351;49.108;1.502;2022-09-01T14:15:15;1050.07;;;939.97;;
67503;SDS011;54351;49.108;1.502;2022-09-01T14:17:42;1166.80;;;999.90;;
67503;SDS011;54351;49.108;1.502;2022-09-01T14:20:13;1098.30;;;981.35;;
67503;SDS011;54351;49.108;1.502;2022-09-01T14:22:39;1112.97;;;993.65;;
67503;SDS011;54351;49.108;1.502;2022-09-01T14:25:06;1156.18;;;999.90;;
67503;SDS011;54351;49.108;1.502;2022-09-01T14:27:32;1107.53;;;986.20;;
67503;SDS011;54351;49.108;1.502;2022-09-01T14:29:59;1089.70;;;974.20;;
67503;SDS011;54351;49.108;1.502;2022-09-01T14:32:25;1117.97;;;996.78;;
67503;SDS011;54351;49.108;1.502;2022-09-01T14:34:55;1110.18;;;990.85;;
67503;SDS011;54351;49.108;1.502;2022-09-01T14:37:21;1127.87;;;999.90;;
67503;SDS011;54351;49.108;1.502;2022-09-01T14:39:51;1109.50;;;989.60;;
67503;SDS011;54351;49.108;1.502;2022-09-01T14:42:18;1080.13;;;966.17;;
67503;SDS011;54351;49.108;1.502;2022-09-01T14:44:44;1091.43;;;974.53;;
67503;SDS011;54351;49.108;1.502;2022-09-01T14:47:11;1073.60;;;961.22;;
67503;SDS011;54351;49.108;1.502;2022-09-01T14:49:37;1140.63;;;999.90;;
67503;SDS011;54351;49.108;1.502;2022-09-01T14:52:03;1146.47;;;999.90;;
67503;SDS011;54351;49.108;1.502;2022-09-01T14:54:31;1151.22;;;999.90;;
67503;SDS011;54351;49.108;1.502;2022-09-01T14:56:57;1211.50;;;999.90;;
67503;SDS011;54351;49.108;1.502;2022-09-01T14:59:23;1167.57;;;999.90;;
67503;SDS011;54351;49.108;1.502;2022-09-01T15:01:49;1139.82;;;999.90;;
67503;SDS011;54351;49.108;1.502;2022-09-01T15:04:15;1107.75;;;989.22;;
67503;SDS011;54351;49.108;1.502;2022-09-01T15:06:41;1169.35;;;999.90;;
67503;SDS011;54351;49.108;1.502;2022-09-01T15:09:07;1115.90;;;994.28;;
67503;SDS011;54351;49.108;1.502;2022-09-01T15:11:34;1107.78;;;986.50;;
67503;SDS011;54351;49.108;1.502;2022-09-01T15:14:00;1114.20;;;991.40;;
67503;SDS011;54351;49.108;1.502;2022-09-01T15:16:26;1116.05;;;993.20;;
67503;SDS011;54351;49.108;1.502;2022-09-01T15:18:52;1126.07;;;999.72;;
67503;SDS011;54351;49.108;1.502;2022-09-01T15:21:26;1163.63;;;999.90;;
67503;SDS011;54351;49.108;1.502;2022-09-01T15:23:56;1116.70;;;993.20;;
67503;SDS011;54351;49.108;1.502;2022-09-01T15:26:22;1143.68;;;991.38;;